Time;durP1;ratioP1;P1;durP2;ratioP2;P2;SDS_P1;SDS_P2;PMS_P1;PMS_P2;Temp;Humidity;BMP_temperature;BMP_pressure;BME280_temperature;BME280_humidity;BME280_pressure;Samples;Min_cycle;Max_cycle;Signal;HPM_P1;HPM_P2
2023/05/31 00:01:59;;;;;;;34.63;31.45;;;12.90;1.00;;;;;;5051385;28;20487;-63
2023/05/31 00:04:25;;;;;;;34.42;31.35;;;12.90;1.00;;;;;;5058619;28;20118;-63
2023/05/31 00:06:50;;;;;;;35.22;32.20;;;12.80;1.00;;;;;;5068023;28;20051;-63
2023/05/31 00:09:16;;;;;;;35.75;32.08;;;12.80;1.00;;;;;;5061145;28;20582;-63
2023/05/31 00:11:42;;;;;;;35.53;32.33;;;12.80;1.00;;;;;;5052357;28;20519;-63
2023/05/31 00:14:07;;;;;;;36.03;32.55;;;13.40;6.10;;;;;;5070350;28;20041;-63
2023/05/31 00:16:33;;;;;;;35.03;31.75;;;12.80;71.90;;;;;;5056338;28;20068;-63
2023/05/31 00:18:58;;;;;;;36.83;33.45;;;13.00;97.40;;;;;;5059238;28;20582;-63
2023/05/31 00:21:24;;;;;;;36.08;32.58;;;12.90;99.90;;;;;;5058880;28;20509;-63
2023/05/31 00:23:50;;;;;;;37.33;33.47;;;12.90;99.90;;;;;;5073268;28;20071;-63
2023/05/31 00:26:15;;;;;;;36.05;32.53;;;12.90;99.90;;;;;;5071795;28;20036;-63
2023/05/31 00:28:41;;;;;;;35.92;32.55;;;12.90;99.90;;;;;;5065942;28;20037;-63
2023/05/31 00:31:06;;;;;;;35.30;32.20;;;13.00;99.90;;;;;;5061020;28;20041;-63
2023/05/31 00:33:32;;;;;;;35.38;32.05;;;12.90;99.90;;;;;;5071358;28;20090;-63
2023/05/31 00:35:57;;;;;;;35.63;32.22;;;12.90;99.90;;;;;;5064676;28;20517;-63
2023/05/31 00:38:23;;;;;;;35.97;32.63;;;12.90;99.90;;;;;;5069348;28;20052;-63
2023/05/31 00:40:49;;;;;;;34.88;31.40;;;13.00;99.90;;;;;;5070534;28;20051;-63
2023/05/31 00:43:14;;;;;;;33.22;30.20;;;13.00;99.90;;;;;;5064103;28;20036;-63
2023/05/31 00:45:40;;;;;;;34.72;31.42;;;13.00;99.90;;;;;;5055064;28;20044;-63
2023/05/31 00:48:06;;;;;;;34.50;31.40;;;12.90;99.90;;;;;;5066972;28;20059;-63
2023/05/31 00:50:31;;;;;;;35.00;32.00;;;12.90;99.90;;;;;;5072560;28;20076;-63
2023/05/31 00:52:59;;;;;;;35.63;32.53;;;12.90;99.90;;;;;;5069859;28;20087;-63
2023/05/31 00:55:25;;;;;;;36.15;32.90;;;12.80;99.90;;;;;;5052862;28;20084;-63
2023/05/31 00:57:51;;;;;;;34.63;31.50;;;12.80;99.90;;;;;;5067150;28;20044;-63
2023/05/31 01:00:17;;;;;;;35.85;32.78;;;12.90;99.90;;;;;;5053439;28;20047;-63
2023/05/31 01:02:43;;;;;;;35.58;32.05;;;12.80;99.90;;;;;;5062470;28;20131;-63
2023/05/31 01:05:09;;;;;;;35.55;32.40;;;13.50;99.90;;;;;;5052754;28;20550;-63
2023/05/31 01:07:36;;;;;;;34.58;31.48;;;12.80;99.90;;;;;;5062656;28;20041;-63
2023/05/31 01:10:03;;;;;;;36.55;33.25;;;12.70;1.00;;;;;;5062537;28;20053;-63
2023/05/31 01:12:55;;;;;;;36.10;32.65;;;12.80;1.00;;;;;;5059977;28;20050;-63
2023/05/31 01:15:29;;;;;;;35.08;31.85;;;12.70;1.00;;;;;;5067842;28;20356;-63
2023/05/31 01:18:26;;;;;;;35.92;32.72;;;12.70;1.00;;;;;;5068092;28;20055;-63
2023/05/31 01:20:54;;;;;;;36.42;32.78;;;12.60;1.00;;;;;;5071448;28;20052;-63
2023/05/31 01:23:37;;;;;;;35.35;32.28;;;12.70;1.00;;;;;;5069334;28;20040;-63
2023/05/31 01:26:32;;;;;;;36.03;32.53;;;12.50;1.00;;;;;;5055601;28;20069;-63
2023/05/31 01:29:04;;;;;;;35.17;31.65;;;12.50;1.00;;;;;;5056471;28;20068;-63
2023/05/31 01:31:32;;;;;;;36.88;33.35;;;12.40;1.00;;;;;;5068424;28;20486;-63
2023/05/31 01:33:59;;;;;;;36.75;33.33;;;12.30;1.00;;;;;;5071587;28;20573;-63
2023/05/31 01:36:24;;;;;;;36.88;33.67;;;12.30;1.00;;;;;;5069319;28;20044;-63
2023/05/31 01:38:51;;;;;;;36.78;33.50;;;12.20;1.00;;;;;;5069556;28;20039;-63
2023/05/31 01:41:17;;;;;;;37.78;34.17;;;12.20;1.00;;;;;;5071232;28;20155;-63
2023/05/31 01:43:44;;;;;;;37.65;34.05;;;12.10;1.00;;;;;;5071191;28;20055;-63
2023/05/31 01:46:14;;;;;;;38.53;35.30;;;12.00;1.00;;;;;;5053063;28;20050;-63
2023/05/31 01:48:41;;;;;;;38.92;35.50;;;11.80;1.00;;;;;;5066838;28;20036;-63
2023/05/31 01:51:10;;;;;;;39.10;35.45;;;11.70;12.60;;;;;;5057147;28;20044;-63
2023/05/31 01:53:35;;;;;;;38.22;34.90;;;11.50;76.60;;;;;;5066330;28;20050;-63
2023/05/31 01:56:02;;;;;;;39.50;36.03;;;11.50;99.90;;;;;;5068888;28;20036;-63
2023/05/31 01:58:31;;;;;;;35.75;32.75;;;11.30;99.90;;;;;;5064657;28;20474;-63
2023/05/31 02:00:58;;;;;;;36.78;33.65;;;11.30;99.90;;;;;;5057744;28;20048;-63
2023/05/31 02:03:24;;;;;;;39.13;35.72;;;11.10;99.90;;;;;;5063619;28;20081;-63
2023/05/31 02:05:56;;;;;;;39.47;35.83;;;11.10;99.90;;;;;;5057729;28;20066;-63
2023/05/31 02:08:23;;;;;;;39.13;35.60;;;11.00;1.00;;;;;;5067531;28;20486;-63
2023/05/31 02:10:49;;;;;;;37.97;34.30;;;11.60;1.00;;;;;;5050787;28;20037;-63
2023/05/31 02:13:14;;;;;;;36.88;33.78;;;10.90;34.60;;;;;;5061705;28;20094;-63
2023/05/31 02:15:41;;;;;;;38.40;34.85;;;11.00;99.90;;;;;;5069855;28;20032;-63
2023/05/31 02:18:07;;;;;;;35.00;32.08;;;10.90;99.90;;;;;;5066616;28;20595;-63
2023/05/31 02:20:33;;;;;;;35.15;31.90;;;10.80;1.00;;;;;;5062908;28;20040;-63
2023/05/31 02:22:59;;;;;;;36.10;32.85;;;10.90;1.00;;;;;;5069626;28;20044;-63
2023/05/31 02:25:25;;;;;;;36.92;33.70;;;10.80;35.60;;;;;;5070710;28;20036;-63
2023/05/31 02:27:50;;;;;;;35.60;32.30;;;10.60;99.90;;;;;;5069277;28;20059;-63
2023/05/31 02:30:16;;;;;;;37.10;33.83;;;10.30;99.90;;;;;;5050910;28;20044;-63
2023/05/31 02:32:42;;;;;;;36.72;33.53;;;10.70;1.00;;;;;;5055486;28;20040;-63
2023/05/31 02:35:09;;;;;;;35.90;32.75;;;10.50;1.00;;;;;;5064920;28;20040;-63
2023/05/31 02:37:36;;;;;;;34.45;31.25;;;10.60;90.10;;;;;;5053429;28;20040;-63
2023/05/31 02:40:07;;;;;;;35.90;32.72;;;10.70;99.90;;;;;;5069197;28;20040;-63
2023/05/31 02:42:34;;;;;;;35.47;32.13;;;10.50;99.90;;;;;;5069298;28;20036;-63
2023/05/31 02:45:00;;;;;;;36.20;32.97;;;10.50;1.00;;;;;;5069630;28;20048;-63
2023/05/31 02:47:25;;;;;;;35.65;32.25;;;10.40;1.00;;;;;;5067096;28;20174;-63
2023/05/31 02:49:51;;;;;;;35.55;32.35;;;10.40;29.70;;;;;;5069528;28;20044;-63
2023/05/31 02:52:16;;;;;;;36.20;32.90;;;10.30;94.70;;;;;;5057069;28;20036;-63
2023/05/31 02:54:42;;;;;;;35.65;32.30;;;10.30;99.90;;;;;;5069350;28;20119;-63
2023/05/31 02:57:07;;;;;;;34.50;31.60;;;10.40;99.90;;;;;;5067765;28;20049;-63
2023/05/31 02:59:33;;;;;;;34.10;31.10;;;10.30;99.90;;;;;;5067601;28;20045;-63
2023/05/31 03:01:58;;;;;;;33.67;30.60;;;10.30;1.00;;;;;;5069364;28;20032;-63
2023/05/31 03:04:25;;;;;;;34.85;31.67;;;10.40;1.00;;;;;;5069770;28;20037;-63
2023/05/31 03:06:50;;;;;;;34.03;30.50;;;10.60;51.40;;;;;;5055904;28;20036;-63
2023/05/31 03:09:16;;;;;;;34.08;30.95;;;10.60;99.90;;;;;;5067428;28;20056;-63
2023/05/31 03:11:43;;;;;;;34.58;31.30;;;10.50;99.90;;;;;;5054506;28;20083;-63
2023/05/31 03:14:09;;;;;;;35.40;32.13;;;10.70;99.90;;;;;;5051073;28;20037;-63
2023/05/31 03:16:35;;;;;;;33.72;30.65;;;10.60;99.90;;;;;;5050045;28;20124;-63
2023/05/31 03:19:00;;;;;;;32.70;29.30;;;10.60;99.90;;;;;;5066095;28;20505;-63
2023/05/31 03:21:26;;;;;;;34.60;31.40;;;10.50;99.90;;;;;;5067092;28;20048;-63
2023/05/31 03:23:51;;;;;;;35.03;31.52;;;10.30;99.90;;;;;;5060088;28;20075;-63
2023/05/31 03:26:17;;;;;;;34.80;31.67;;;10.30;99.90;;;;;;5057891;28;20102;-63
2023/05/31 03:28:42;;;;;;;35.80;32.28;;;10.20;99.90;;;;;;5059335;28;20041;-63
2023/05/31 03:31:08;;;;;;;37.13;33.50;;;10.20;99.90;;;;;;5067398;28;20044;-63
2023/05/31 03:33:35;;;;;;;36.78;33.05;;;10.30;99.90;;;;;;5067966;28;20048;-63
2023/05/31 03:36:01;;;;;;;37.17;33.90;;;10.30;99.90;;;;;;5050582;28;20410;-63
2023/05/31 03:38:28;;;;;;;37.17;33.40;;;10.30;99.90;;;;;;5063324;28;20125;-63
2023/05/31 03:40:53;;;;;;;36.60;33.08;;;10.40;99.90;;;;;;5061693;28;20077;-63
2023/05/31 03:43:19;;;;;;;37.65;34.00;;;10.60;99.90;;;;;;5069169;28;20039;-63
2023/05/31 03:45:45;;;;;;;36.72;33.03;;;10.50;99.90;;;;;;5062907;28;20046;-63
2023/05/31 03:48:11;;;;;;;35.28;31.80;;;10.60;99.90;;;;;;5058461;28;20562;-63
2023/05/31 03:50:39;;;;;;;35.95;32.03;;;10.60;99.90;;;;;;5069359;28;20494;-63
2023/05/31 03:53:05;;;;;;;35.10;31.67;;;10.70;99.90;;;;;;5055814;28;20047;-63
2023/05/31 03:55:30;;;;;;;36.28;32.50;;;10.50;99.90;;;;;;5068260;28;20044;-63
2023/05/31 03:57:56;;;;;;;37.22;33.40;;;10.70;99.90;;;;;;5059735;28;20045;-63
2023/05/31 04:00:22;;;;;;;35.35;32.00;;;10.50;99.90;;;;;;5069221;28;20119;-63
2023/05/31 04:02:47;;;;;;;35.67;32.03;;;11.10;99.90;;;;;;5056707;28;20114;-63
2023/05/31 04:05:13;;;;;;;35.72;32.13;;;10.50;99.90;;;;;;5068895;28;20075;-63
2023/05/31 04:07:38;;;;;;;35.80;32.33;;;10.50;99.90;;;;;;5048661;28;20041;-63
2023/05/31 04:10:04;;;;;;;37.00;31.77;;;10.40;99.90;;;;;;5067547;28;20055;-63
2023/05/31 04:12:30;;;;;;;34.97;31.73;;;10.70;99.90;;;;;;5068489;28;20118;-63
2023/05/31 04:14:55;;;;;;;35.55;32.10;;;10.60;99.90;;;;;;5064921;28;20088;-63
2023/05/31 04:17:21;;;;;;;34.50;31.05;;;10.50;99.90;;;;;;5064109;28;20048;-63
2023/05/31 04:19:47;;;;;;;35.00;31.58;;;10.60;99.90;;;;;;5068817;28;20084;-63
2023/05/31 04:22:12;;;;;;;36.78;31.63;;;10.40;99.90;;;;;;5067817;28;20037;-63
2023/05/31 04:24:38;;;;;;;34.30;30.75;;;10.70;99.90;;;;;;5068584;28;20409;-63
2023/05/31 04:27:03;;;;;;;34.97;31.55;;;10.50;99.90;;;;;;5061746;28;20041;-63
2023/05/31 04:29:29;;;;;;;34.92;31.40;;;10.80;99.90;;;;;;5068910;28;20489;-63
2023/05/31 04:31:55;;;;;;;34.47;31.30;;;10.90;99.90;;;;;;5064349;28;20048;-63
2023/05/31 04:34:21;;;;;;;35.00;31.88;;;11.00;99.90;;;;;;5068770;28;20036;-63
2023/05/31 04:36:49;;;;;;;36.67;32.58;;;11.00;99.90;;;;;;5068254;28;20036;-63
2023/05/31 04:39:22;;;;;;;36.55;32.72;;;11.10;99.90;;;;;;5052866;28;20075;-63
2023/05/31 04:41:48;;;;;;;37.55;31.75;;;11.10;99.90;;;;;;5049341;28;20295;-63
2023/05/31 04:44:14;;;;;;;34.63;31.23;;;11.50;99.90;;;;;;5059173;28;20115;-63
2023/05/31 04:46:42;;;;;;;35.38;31.90;;;11.30;99.90;;;;;;5064196;28;20136;-63
2023/05/31 04:49:09;;;;;;;35.30;31.55;;;11.60;99.90;;;;;;5059223;28;20076;-63
2023/05/31 04:51:35;;;;;;;34.85;31.55;;;11.50;99.90;;;;;;5064185;28;20502;-63
2023/05/31 04:54:02;;;;;;;35.45;32.03;;;11.60;99.90;;;;;;5048846;28;20120;-63
2023/05/31 04:56:27;;;;;;;33.72;30.50;;;11.90;99.90;;;;;;5051848;28;20494;-63
2023/05/31 04:58:53;;;;;;;34.17;30.85;;;11.80;99.90;;;;;;5067327;28;20116;-63
2023/05/31 05:01:18;;;;;;;34.63;31.27;;;11.90;99.90;;;;;;5070336;28;20045;-63
2023/05/31 05:03:44;;;;;;;35.83;32.08;;;12.00;99.90;;;;;;5056746;28;20044;-63
2023/05/31 05:06:15;;;;;;;35.80;32.17;;;12.40;99.90;;;;;;5068510;28;20036;-63
2023/05/31 05:08:42;;;;;;;35.75;31.92;;;12.50;99.90;;;;;;5069971;28;20402;-63
2023/05/31 05:11:07;;;;;;;35.67;32.17;;;12.40;99.90;;;;;;5071575;28;20045;-63
2023/05/31 05:13:33;;;;;;;36.65;32.30;;;12.70;99.90;;;;;;5068470;28;20402;-63
2023/05/31 05:15:59;;;;;;;34.97;31.58;;;12.40;99.90;;;;;;5056871;28;20048;-63
2023/05/31 05:18:26;;;;;;;34.55;31.30;;;13.20;99.90;;;;;;5054010;28;20125;-63
2023/05/31 05:20:51;;;;;;;35.47;31.73;;;13.30;99.90;;;;;;5071698;28;20102;-63
2023/05/31 05:23:17;;;;;;;36.05;31.98;;;13.10;99.90;;;;;;5054513;28;20049;-61
2023/05/31 05:25:42;;;;;;;35.28;31.92;;;13.60;99.90;;;;;;5059667;28;20037;-61
2023/05/31 05:28:08;;;;;;;35.58;31.85;;;13.30;99.90;;;;;;5062457;28;20414;-61
2023/05/31 05:30:33;;;;;;;37.13;33.42;;;13.10;99.90;;;;;;5066749;28;20053;-61
2023/05/31 05:32:59;;;;;;;35.65;32.15;;;13.40;99.90;;;;;;5058413;28;20060;-61
2023/05/31 05:35:24;;;;;;;35.67;32.17;;;13.40;99.90;;;;;;5057630;28;20048;-62
2023/05/31 05:37:50;;;;;;;37.15;33.33;;;14.10;99.90;;;;;;5058683;28;20529;-61
2023/05/31 05:40:16;;;;;;;36.92;32.08;;;14.10;99.90;;;;;;5063451;28;20063;-61
2023/05/31 05:42:41;;;;;;;36.45;32.78;;;13.90;99.90;;;;;;5064054;28;20047;-61
2023/05/31 05:45:08;;;;;;;35.20;31.83;;;13.70;99.90;;;;;;5062952;28;20490;-61
2023/05/31 05:47:35;;;;;;;35.90;32.20;;;13.80;99.90;;;;;;5064461;28;20043;-61
2023/05/31 05:50:00;;;;;;;39.20;33.53;;;14.00;99.90;;;;;;5055729;28;20044;-61
2023/05/31 05:52:26;;;;;;;40.17;33.90;;;14.10;99.90;;;;;;5055618;28;20101;-61
2023/05/31 05:54:52;;;;;;;36.90;33.17;;;14.20;99.90;;;;;;5060723;28;20453;-61
2023/05/31 05:57:18;;;;;;;38.08;34.22;;;14.30;99.90;;;;;;5058816;28;20044;-61
2023/05/31 05:59:44;;;;;;;37.08;33.45;;;14.30;99.90;;;;;;5058518;28;20506;-61
2023/05/31 06:02:11;;;;;;;38.67;34.55;;;14.30;99.90;;;;;;5059686;28;20036;-61
2023/05/31 06:04:37;;;;;;;41.78;35.63;;;14.40;99.90;;;;;;5053432;28;20514;-61
2023/05/31 06:07:03;;;;;;;38.03;34.28;;;14.30;99.90;;;;;;5060374;28;20439;-62
2023/05/31 06:09:28;;;;;;;37.35;33.60;;;14.40;99.90;;;;;;5054455;28;20041;-61
2023/05/31 06:11:54;;;;;;;37.28;33.05;;;14.50;99.90;;;;;;5050340;28;20064;-61
2023/05/31 06:14:20;;;;;;;36.67;33.10;;;14.70;99.90;;;;;;5059774;28;20048;-60
2023/05/31 06:16:45;;;;;;;39.40;34.25;;;14.70;99.90;;;;;;5056251;28;20077;-61
2023/05/31 06:19:11;;;;;;;35.97;32.40;;;14.50;99.90;;;;;;5058769;28;20032;-61
2023/05/31 06:21:36;;;;;;;38.10;34.03;;;14.60;99.90;;;;;;5059697;28;20036;-60
2023/05/31 06:24:03;;;;;;;36.15;32.58;;;14.80;99.90;;;;;;5066262;28;20036;-61
2023/05/31 06:26:29;;;;;;;37.47;33.85;;;14.70;99.90;;;;;;5056902;28;20037;-61
2023/05/31 06:28:57;;;;;;;35.80;32.22;;;14.90;99.90;;;;;;5069473;28;20391;-60
2023/05/31 06:31:22;;;;;;;35.10;31.40;;;15.10;99.90;;;;;;5059218;28;20525;-60
2023/05/31 06:33:48;;;;;;;36.58;32.70;;;15.20;99.90;;;;;;5068690;28;20044;-61
2023/05/31 06:36:14;;;;;;;35.65;31.73;;;15.10;99.90;;;;;;5053796;28;20688;-61
2023/05/31 06:38:39;;;;;;;34.03;30.35;;;15.40;99.90;;;;;;5055819;28;20060;-61
2023/05/31 06:41:05;;;;;;;34.90;31.23;;;15.50;99.90;;;;;;5061552;28;20131;-62
2023/05/31 06:43:31;;;;;;;34.40;30.77;;;15.60;99.90;;;;;;5062623;28;20122;-61
2023/05/31 06:45:56;;;;;;;35.50;31.80;;;15.60;99.90;;;;;;5060509;28;20552;-61
2023/05/31 06:48:22;;;;;;;36.50;32.53;;;16.00;99.90;;;;;;5059851;28;20041;-61
2023/05/31 06:50:47;;;;;;;35.97;32.40;;;15.70;99.90;;;;;;5055521;28;20410;-61
2023/05/31 06:53:13;;;;;;;33.05;29.73;;;16.00;99.90;;;;;;5052451;28;20094;-60
2023/05/31 06:55:38;;;;;;;33.50;30.10;;;16.00;99.90;;;;;;5057503;28;20062;-61
2023/05/31 06:58:04;;;;;;;34.25;30.90;;;16.20;99.90;;;;;;5056488;28;20036;-61
2023/05/31 07:00:30;;;;;;;36.55;32.60;;;16.30;1.00;;;;;;5058135;28;20394;-60
2023/05/31 07:02:55;;;;;;;35.28;32.17;;;16.70;1.00;;;;;;5055687;28;20040;-60
2023/05/31 07:05:21;;;;;;;37.08;33.20;;;16.30;1.00;;;;;;5056929;28;20037;-60
2023/05/31 07:07:47;;;;;;;34.13;31.23;;;16.40;94.80;;;;;;5052500;28;20043;-61
2023/05/31 07:10:13;;;;;;;31.80;28.88;;;16.40;1.00;;;;;;5065680;28;20063;-60
2023/05/31 07:12:39;;;;;;;31.38;28.48;;;16.70;99.90;;;;;;5054163;28;20045;-61
2023/05/31 07:15:05;;;;;;;31.45;28.25;;;16.80;99.90;;;;;;5066212;28;20119;-60
2023/05/31 07:17:30;;;;;;;32.55;29.75;;;17.10;1.00;;;;;;5059381;28;20079;-61
2023/05/31 07:19:56;;;;;;;34.17;31.13;;;17.10;99.90;;;;;;5054793;28;20494;-61
2023/05/31 07:22:22;;;;;;;34.75;31.63;;;16.80;1.00;;;;;;5056108;28;20079;-61
2023/05/31 07:24:48;;;;;;;31.80;28.98;;;17.00;99.90;;;;;;5063169;28;21071;-61
2023/05/31 07:27:13;;;;;;;32.45;29.38;;;17.20;99.90;;;;;;5052860;28;20040;-61
2023/05/31 07:29:39;;;;;;;30.90;28.13;;;17.40;76.90;;;;;;5063515;28;20037;-61
2023/05/31 07:32:05;;;;;;;31.92;29.23;;;17.40;1.00;;;;;;5057661;28;20063;-61
2023/05/31 07:34:31;;;;;;;36.85;33.38;;;17.50;99.90;;;;;;5059719;28;20079;-61
2023/05/31 07:36:57;;;;;;;35.83;32.55;;;17.30;1.00;;;;;;5062658;28;20483;-61
2023/05/31 07:39:22;;;;;;;36.33;32.90;;;17.00;99.90;;;;;;5065256;28;20576;-61
2023/05/31 07:41:49;;;;;;;35.47;32.38;;;17.00;99.90;;;;;;5063485;28;20136;-60
2023/05/31 07:44:16;;;;;;;34.88;31.67;;;17.70;1.00;;;;;;5061594;28;20119;-61
2023/05/31 07:46:42;;;;;;;35.53;32.03;;;17.40;99.90;;;;;;5060749;28;20044;-61
2023/05/31 07:49:08;;;;;;;31.15;28.50;;;17.70;99.90;;;;;;5052782;28;20099;-61
2023/05/31 07:51:33;;;;;;;31.73;28.98;;;17.70;99.90;;;;;;5052459;28;20064;-61
2023/05/31 07:53:59;;;;;;;34.30;30.95;;;17.70;1.00;;;;;;5058878;28;20453;-61
2023/05/31 07:56:25;;;;;;;35.92;32.25;;;17.60;1.00;;;;;;5058863;28;20490;-61
2023/05/31 07:58:51;;;;;;;34.35;31.17;;;17.50;99.90;;;;;;5062799;28;20040;-61
2023/05/31 08:01:17;;;;;;;33.25;29.60;;;17.60;99.90;;;;;;5068425;28;20517;-61
2023/05/31 08:03:43;;;;;;;33.53;30.42;;;17.70;99.90;;;;;;5064611;28;20032;-61
2023/05/31 08:06:09;;;;;;;34.38;31.17;;;17.60;99.90;;;;;;5049740;28;20036;-61
2023/05/31 08:08:35;;;;;;;37.60;34.00;;;17.60;99.90;;;;;;5068411;28;20413;-61
2023/05/31 08:11:01;;;;;;;35.60;32.10;;;17.50;99.90;;;;;;5058740;28;20115;-61
2023/05/31 08:13:28;;;;;;;36.15;32.38;;;17.40;99.90;;;;;;5062892;28;20715;-61
2023/05/31 08:15:54;;;;;;;37.17;33.20;;;17.40;99.90;;;;;;5056999;28;20098;-61
2023/05/31 08:18:20;;;;;;;37.25;33.55;;;17.20;99.90;;;;;;5060297;28;20123;-61
2023/05/31 08:20:46;;;;;;;37.00;33.40;;;17.10;99.90;;;;;;5054070;28;20140;-61
2023/05/31 08:23:19;;;;;;;36.85;33.38;;;16.90;99.90;;;;;;5060661;28;20541;-61
2023/05/31 08:25:44;;;;;;;35.00;31.70;;;17.10;99.90;;;;;;5058540;28;20051;-61
2023/05/31 08:28:10;;;;;;;32.75;29.75;;;17.20;99.90;;;;;;5063578;28;20036;-61
2023/05/31 08:30:36;;;;;;;34.97;31.75;;;17.30;99.90;;;;;;5058861;28;20041;-61
2023/05/31 08:33:02;;;;;;;34.15;30.98;;;17.40;99.90;;;;;;5059545;28;20039;-63
2023/05/31 08:35:27;;;;;;;30.67;27.85;;;17.40;99.90;;;;;;5052127;28;20359;-64
2023/05/31 08:37:54;;;;;;;32.08;29.02;;;17.40;93.10;;;;;;5067193;28;20096;-63
2023/05/31 08:40:20;;;;;;;33.33;30.42;;;17.40;22.20;;;;;;5071197;28;20040;-63
2023/05/31 08:42:48;;;;;;;36.85;33.00;;;17.50;1.00;;;;;;5054604;28;20039;-63
2023/05/31 08:45:15;;;;;;;35.80;32.30;;;17.20;1.00;;;;;;5054950;28;20033;-63
2023/05/31 08:47:49;;;;;;;33.30;30.10;;;17.20;1.00;;;;;;5052737;28;20410;-63
2023/05/31 08:50:16;;;;;;;35.15;31.83;;;17.20;1.00;;;;;;5067782;28;20562;-63
2023/05/31 08:52:44;;;;;;;35.08;31.52;;;17.10;1.00;;;;;;5069702;28;20044;-63
2023/05/31 08:55:10;;;;;;;36.38;32.92;;;17.10;1.00;;;;;;5068883;28;20045;-63
2023/05/31 08:57:36;;;;;;;35.55;31.88;;;17.20;1.00;;;;;;5051583;28;20112;-63
2023/05/31 09:00:10;;;;;;;35.22;31.33;;;17.20;1.00;;;;;;5058097;28;20087;-63
2023/05/31 09:02:37;;;;;;;35.22;31.63;;;17.20;1.00;;;;;;5056346;28;20482;-63
2023/05/31 09:05:04;;;;;;;33.72;30.13;;;17.70;1.00;;;;;;5057478;28;20675;-63
2023/05/31 09:07:30;;;;;;;31.52;28.50;;;17.40;1.00;;;;;;5059431;28;20037;-63
2023/05/31 09:09:56;;;;;;;32.85;29.30;;;17.50;1.00;;;;;;5056990;28;20110;-63
2023/05/31 09:12:21;;;;;;;32.53;29.38;;;17.50;1.00;;;;;;5055960;28;20402;-64
2023/05/31 09:14:48;;;;;;;33.90;30.27;;;17.60;1.00;;;;;;5067949;28;20490;-63
2023/05/31 09:17:13;;;;;;;34.80;31.30;;;17.40;99.90;;;;;;5060177;28;20056;-63
2023/05/31 09:19:51;;;;;;;34.30;30.90;;;17.30;99.90;;;;;;5065741;28;20053;-63
2023/05/31 09:22:16;;;;;;;34.80;31.30;;;17.10;99.90;;;;;;5054268;28;20037;-63
2023/05/31 09:25:12;;;;;;;32.50;29.58;;;17.20;1.00;;;;;;5068838;28;20036;-63
2023/05/31 09:27:38;;;;;;;33.90;30.73;;;17.20;99.90;;;;;;5047529;28;20057;-63
2023/05/31 09:30:08;;;;;;;34.67;31.38;;;17.30;99.90;;;;;;5062151;28;20036;-63
2023/05/31 09:32:35;;;;;;;36.47;32.72;;;17.30;99.90;;;;;;5063118;28;20503;-63
2023/05/31 09:35:12;;;;;;;35.40;31.83;;;17.30;99.90;;;;;;5061958;28;20041;-63
2023/05/31 09:37:48;;;;;;;36.33;32.85;;;17.20;99.90;;;;;;5066326;28;20518;-64
2023/05/31 09:40:24;;;;;;;34.70;31.70;;;17.30;99.90;;;;;;5062204;28;20052;-63
2023/05/31 09:42:51;;;;;;;35.03;31.75;;;17.30;1.00;;;;;;5059141;28;20524;-63
2023/05/31 09:45:17;;;;;;;38.53;34.78;;;17.20;99.90;;;;;;5067987;28;20036;-63
2023/05/31 09:47:43;;;;;;;35.22;32.00;;;17.10;99.90;;;;;;5063596;28;20113;-63
2023/05/31 09:50:19;;;;;;;35.42;31.92;;;17.20;99.90;;;;;;5055902;28;20513;-63
2023/05/31 09:52:46;;;;;;;33.92;31.08;;;17.10;99.90;;;;;;5064621;28;20044;-63
2023/05/31 09:55:15;;;;;;;35.38;31.98;;;17.00;99.90;;;;;;5065844;28;20414;-63
2023/05/31 09:57:43;;;;;;;36.10;32.83;;;17.10;99.90;;;;;;5065310;28;20093;-64
2023/05/31 10:00:18;;;;;;;35.50;32.10;;;16.80;99.90;;;;;;5068971;28;20048;-63
2023/05/31 10:02:54;;;;;;;35.55;32.25;;;16.80;99.90;;;;;;5054571;28;20037;-63
2023/05/31 10:05:21;;;;;;;36.47;32.10;;;16.70;1.00;;;;;;5060413;28;20052;-62
2023/05/31 10:07:49;;;;;;;35.70;31.30;;;17.00;1.00;;;;;;5058192;28;20415;-62
2023/05/31 10:10:17;;;;;;;33.85;30.10;;;17.30;1.00;;;;;;5048870;28;20040;-62
2023/05/31 10:12:50;;;;;;;34.35;30.85;;;17.20;1.00;;;;;;5060357;28;20516;-62
2023/05/31 10:15:25;;;;;;;34.35;30.80;;;17.20;99.90;;;;;;5062655;28;20502;-62
2023/05/31 10:18:09;;;;;;;32.78;29.63;;;17.40;1.00;;;;;;5068053;28;20078;-62
2023/05/31 10:20:40;;;;;;;33.78;30.67;;;17.30;99.90;;;;;;5062789;28;20044;-62
2023/05/31 10:23:14;;;;;;;35.80;32.25;;;17.20;99.90;;;;;;5064310;28;20075;-62
2023/05/31 10:26:07;;;;;;;35.45;32.17;;;17.10;99.90;;;;;;5063186;28;20098;-62
2023/05/31 10:28:38;;;;;;;37.20;33.63;;;17.10;99.90;;;;;;5057968;28;20123;-62
2023/05/31 10:31:04;;;;;;;34.15;30.92;;;16.90;1.00;;;;;;5060675;28;20673;-62
2023/05/31 10:33:31;;;;;;;34.47;31.33;;;17.10;1.00;;;;;;5055136;28;20044;-63
2023/05/31 10:36:00;;;;;;;33.55;30.63;;;17.20;1.00;;;;;;5063145;28;20036;-63
2023/05/31 10:38:35;;;;;;;33.83;30.65;;;17.20;99.90;;;;;;5060147;28;20145;-62
2023/05/31 10:41:11;;;;;;;39.00;34.88;;;17.20;99.90;;;;;;5054081;28;20041;-62
2023/05/31 10:43:48;;;;;;;36.72;33.08;;;17.20;99.90;;;;;;5060296;28;20171;-62
2023/05/31 10:46:20;;;;;;;36.83;33.65;;;17.20;99.90;;;;;;5059776;28;20036;-62
2023/05/31 10:48:54;;;;;;;35.30;31.92;;;17.30;1.00;;;;;;5060576;28;20506;-62
2023/05/31 10:51:19;;;;;;;36.15;32.45;;;17.30;99.90;;;;;;5062322;28;20044;-62
2023/05/31 10:53:48;;;;;;;34.97;31.65;;;17.20;99.90;;;;;;5057023;28;20072;-63
2023/05/31 10:56:15;;;;;;;57.42;39.63;;;17.30;99.90;;;;;;5055211;28;20044;-62
2023/05/31 10:58:42;;;;;;;34.78;31.38;;;17.30;99.90;;;;;;5056231;28;20109;-62
2023/05/31 11:01:11;;;;;;;34.90;31.60;;;17.40;99.90;;;;;;5065177;28;20399;-61
2023/05/31 11:03:45;;;;;;;35.28;32.15;;;17.20;99.90;;;;;;5066670;28;20048;-62
2023/05/31 11:06:13;;;;;;;34.92;31.83;;;17.30;99.90;;;;;;5053925;28;20029;-62
2023/05/31 11:08:56;;;;;;;34.60;31.45;;;17.20;99.90;;;;;;5064399;28;20067;-61
2023/05/31 11:11:28;;;;;;;36.40;33.10;;;17.30;99.90;;;;;;5068765;28;20516;-62
2023/05/31 11:14:06;;;;;;;34.45;30.60;;;17.30;99.90;;;;;;5067408;28;20123;-62
2023/05/31 11:16:33;;;;;;;34.00;30.70;;;17.20;99.90;;;;;;5057514;28;20145;-62
2023/05/31 11:19:04;;;;;;;35.78;32.28;;;17.50;99.90;;;;;;5067709;28;20143;-61
2023/05/31 11:21:55;;;;;;;34.13;31.02;;;17.40;99.90;;;;;;5054477;28;20045;-62
2023/05/31 11:24:29;;;;;;;33.65;30.42;;;17.40;99.90;;;;;;5055805;28;20913;-61
2023/05/31 11:26:58;;;;;;;35.35;31.73;;;17.50;99.90;;;;;;5052273;28;20029;-61
2023/05/31 11:29:24;;;;;;;33.85;30.60;;;17.50;99.90;;;;;;5060079;28;20064;-61
2023/05/31 11:31:57;;;;;;;35.80;32.38;;;17.50;99.90;;;;;;5065040;28;20095;-60
2023/05/31 11:34:28;;;;;;;33.83;30.65;;;17.40;99.90;;;;;;5054314;28;20413;-61
2023/05/31 11:36:59;;;;;;;31.75;28.10;;;17.50;99.90;;;;;;5057313;28;20036;-61
2023/05/31 11:39:25;;;;;;;31.55;28.17;;;17.40;99.90;;;;;;5061635;28;20047;-60
2023/05/31 11:41:52;;;;;;;33.08;30.13;;;17.70;99.90;;;;;;5055894;28;20403;-60
2023/05/31 11:44:25;;;;;;;39.08;34.88;;;17.20;99.90;;;;;;5062851;28;20123;-60
2023/05/31 11:47:18;;;;;;;94.63;47.40;;;17.30;99.90;;;;;;5058975;28;20113;-61
2023/05/31 11:49:44;;;;;;;72.07;43.03;;;17.40;99.90;;;;;;5050375;28;20055;-60
2023/05/31 11:52:15;;;;;;;31.77;28.63;;;17.30;99.90;;;;;;5057863;28;20765;-61
2023/05/31 11:54:43;;;;;;;33.50;30.48;;;17.40;99.90;;;;;;5055293;28;20079;-61
2023/05/31 11:57:09;;;;;;;35.40;31.60;;;17.40;99.90;;;;;;5058559;28;20047;-60
2023/05/31 11:59:36;;;;;;;35.45;31.98;;;18.00;99.90;;;;;;5066276;28;20075;-61
2023/05/31 12:02:03;;;;;;;37.55;34.00;;;17.30;99.90;;;;;;5061642;28;20131;-61
2023/05/31 12:04:35;;;;;;;35.45;32.00;;;17.30;99.90;;;;;;5058381;28;20041;-60
2023/05/31 12:07:01;;;;;;;39.08;31.73;;;17.50;99.90;;;;;;5060068;28;20029;-61
2023/05/31 12:09:28;;;;;;;34.65;31.50;;;17.40;99.90;;;;;;5067678;28;20036;-61
2023/05/31 12:11:57;;;;;;;36.95;33.28;;;17.20;99.90;;;;;;5063232;28;20456;-60
2023/05/31 12:14:25;;;;;;;33.10;30.05;;;17.30;99.90;;;;;;5065259;28;20763;-60
2023/05/31 12:16:51;;;;;;;42.22;30.58;;;17.30;99.90;;;;;;5067348;28;20127;-60
2023/05/31 12:19:17;;;;;;;42.45;32.65;;;17.40;99.90;;;;;;5068299;28;20082;-61
2023/05/31 12:21:43;;;;;;;33.85;30.52;;;17.40;99.90;;;;;;5060345;28;20119;-61
2023/05/31 12:24:13;;;;;;;34.15;31.15;;;17.40;99.90;;;;;;5067396;28;20119;-61
2023/05/31 12:26:39;;;;;;;35.28;32.03;;;17.30;99.90;;;;;;5068094;28;20112;-61
2023/05/31 12:29:05;;;;;;;34.22;31.23;;;17.30;99.90;;;;;;5058135;28;20455;-60
2023/05/31 12:31:34;;;;;;;33.53;30.63;;;17.30;99.90;;;;;;5064027;28;20079;-61